sensor_id;sensor_type;location;lat;lon;timestamp;P1;durP1;ratioP1;P2;durP2;ratioP2
11568;SDS011;5840;46.894;15.542;2022-07-22T00:01:42;5.27;;;4.97;;
11568;SDS011;5840;46.894;15.542;2022-07-22T00:04:09;5.30;;;4.83;;
11568;SDS011;5840;46.894;15.542;2022-07-22T00:06:36;6.00;;;5.27;;
11568;SDS011;5840;46.894;15.542;2022-07-22T00:09:03;5.60;;;5.20;;
11568;SDS011;5840;46.894;15.542;2022-07-22T00:11:31;5.77;;;5.27;;
11568;SDS011;5840;46.894;15.542;2022-07-22T00:13:58;6.97;;;6.37;;
11568;SDS011;5840;46.894;15.542;2022-07-22T00:16:25;6.73;;;6.10;;
11568;SDS011;5840;46.894;15.542;2022-07-22T00:18:52;6.90;;;6.30;;
11568;SDS011;5840;46.894;15.542;2022-07-22T00:21:19;6.23;;;5.73;;
11568;SDS011;5840;46.894;15.542;2022-07-22T00:23:46;6.53;;;6.03;;
11568;SDS011;5840;46.894;15.542;2022-07-22T00:26:13;6.60;;;6.03;;
11568;SDS011;5840;46.894;15.542;2022-07-22T00:28:42;7.03;;;6.27;;
11568;SDS011;5840;46.894;15.542;2022-07-22T00:31:09;6.33;;;5.93;;
11568;SDS011;5840;46.894;15.542;2022-07-22T00:33:36;6.93;;;6.20;;
11568;SDS011;5840;46.894;15.542;2022-07-22T00:36:03;6.93;;;6.37;;
11568;SDS011;5840;46.894;15.542;2022-07-22T00:38:31;6.47;;;6.07;;
11568;SDS011;5840;46.894;15.542;2022-07-22T00:40:58;6.80;;;6.30;;
11568;SDS011;5840;46.894;15.542;2022-07-22T00:43:25;5.67;;;5.27;;
11568;SDS011;5840;46.894;15.542;2022-07-22T00:45:53;6.70;;;6.20;;
11568;SDS011;5840;46.894;15.542;2022-07-22T00:48:20;5.80;;;5.47;;
11568;SDS011;5840;46.894;15.542;2022-07-22T00:50:47;5.77;;;5.37;;
11568;SDS011;5840;46.894;15.542;2022-07-22T00:53:15;5.73;;;5.43;;
11568;SDS011;5840;46.894;15.542;2022-07-22T00:55:42;6.50;;;6.00;;
11568;SDS011;5840;46.894;15.542;2022-07-22T00:58:09;6.23;;;5.73;;
11568;SDS011;5840;46.894;15.542;2022-07-22T01:00:36;6.13;;;5.63;;
11568;SDS011;5840;46.894;15.542;2022-07-22T01:03:05;6.07;;;5.57;;
11568;SDS011;5840;46.894;15.542;2022-07-22T01:05:31;6.17;;;5.77;;
11568;SDS011;5840;46.894;15.542;2022-07-22T01:07:58;6.23;;;5.83;;
11568;SDS011;5840;46.894;15.542;2022-07-22T01:10:25;6.03;;;5.60;;
11568;SDS011;5840;46.894;15.542;2022-07-22T01:12:52;6.77;;;6.27;;
11568;SDS011;5840;46.894;15.542;2022-07-22T01:15:19;6.87;;;6.27;;
11568;SDS011;5840;46.894;15.542;2022-07-22T01:17:46;6.67;;;6.07;;
11568;SDS011;5840;46.894;15.542;2022-07-22T01:20:14;6.43;;;5.93;;
11568;SDS011;5840;46.894;15.542;2022-07-22T01:22:41;5.97;;;5.57;;
11568;SDS011;5840;46.894;15.542;2022-07-22T01:25:09;7.23;;;6.53;;
11568;SDS011;5840;46.894;15.542;2022-07-22T01:27:37;6.47;;;5.93;;
11568;SDS011;5840;46.894;15.542;2022-07-22T01:30:04;6.53;;;6.10;;
11568;SDS011;5840;46.894;15.542;2022-07-22T01:32:33;7.03;;;6.13;;
11568;SDS011;5840;46.894;15.542;2022-07-22T01:34:59;6.97;;;6.27;;
11568;SDS011;5840;46.894;15.542;2022-07-22T01:37:28;6.87;;;6.33;;
11568;SDS011;5840;46.894;15.542;2022-07-22T01:39:55;6.40;;;5.90;;
11568;SDS011;5840;46.894;15.542;2022-07-22T01:42:22;6.93;;;6.40;;
11568;SDS011;5840;46.894;15.542;2022-07-22T01:44:49;6.50;;;6.00;;
11568;SDS011;5840;46.894;15.542;2022-07-22T01:47:16;6.57;;;6.07;;
11568;SDS011;5840;46.894;15.542;2022-07-22T01:49:43;6.73;;;6.33;;
11568;SDS011;5840;46.894;15.542;2022-07-22T01:52:10;6.57;;;6.17;;
11568;SDS011;5840;46.894;15.542;2022-07-22T01:54:38;7.60;;;7.00;;
11568;SDS011;5840;46.894;15.542;2022-07-22T01:57:05;7.27;;;6.67;;
11568;SDS011;5840;46.894;15.542;2022-07-22T01:59:32;7.67;;;7.03;;
11568;SDS011;5840;46.894;15.542;2022-07-22T02:01:59;7.37;;;6.83;;
11568;SDS011;5840;46.894;15.542;2022-07-22T02:04:26;6.70;;;6.30;;
11568;SDS011;5840;46.894;15.542;2022-07-22T02:06:52;7.07;;;6.57;;
11568;SDS011;5840;46.894;15.542;2022-07-22T02:09:19;7.87;;;7.23;;
11568;SDS011;5840;46.894;15.542;2022-07-22T02:11:48;7.60;;;7.10;;
11568;SDS011;5840;46.894;15.542;2022-07-22T02:14:15;7.43;;;7.03;;
11568;SDS011;5840;46.894;15.542;2022-07-22T02:16:42;8.17;;;7.47;;
11568;SDS011;5840;46.894;15.542;2022-07-22T02:19:09;8.20;;;7.70;;
11568;SDS011;5840;46.894;15.542;2022-07-22T02:21:36;8.07;;;7.57;;
11568;SDS011;5840;46.894;15.542;2022-07-22T02:24:03;7.67;;;7.17;;
11568;SDS011;5840;46.894;15.542;2022-07-22T02:26:30;8.43;;;7.63;;
11568;SDS011;5840;46.894;15.542;2022-07-22T02:28:58;8.47;;;7.77;;
11568;SDS011;5840;46.894;15.542;2022-07-22T02:31:25;8.23;;;7.43;;
11568;SDS011;5840;46.894;15.542;2022-07-22T02:33:52;7.20;;;6.80;;
11568;SDS011;5840;46.894;15.542;2022-07-22T02:36:19;7.37;;;6.87;;
11568;SDS011;5840;46.894;15.542;2022-07-22T02:38:46;8.57;;;7.80;;
11568;SDS011;5840;46.894;15.542;2022-07-22T02:41:13;8.10;;;7.40;;
11568;SDS011;5840;46.894;15.542;2022-07-22T02:43:40;8.00;;;7.40;;
11568;SDS011;5840;46.894;15.542;2022-07-22T02:46:09;7.70;;;7.10;;
11568;SDS011;5840;46.894;15.542;2022-07-22T02:48:36;7.70;;;7.30;;
11568;SDS011;5840;46.894;15.542;2022-07-22T02:51:02;7.40;;;6.90;;
11568;SDS011;5840;46.894;15.542;2022-07-22T02:53:29;8.47;;;7.83;;
11568;SDS011;5840;46.894;15.542;2022-07-22T02:55:56;7.90;;;7.37;;
11568;SDS011;5840;46.894;15.542;2022-07-22T02:58:23;7.90;;;7.23;;
11568;SDS011;5840;46.894;15.542;2022-07-22T03:00:50;8.03;;;7.33;;
11568;SDS011;5840;46.894;15.542;2022-07-22T03:03:18;7.33;;;6.83;;
11568;SDS011;5840;46.894;15.542;2022-07-22T03:05:45;7.50;;;7.10;;
11568;SDS011;5840;46.894;15.542;2022-07-22T03:08:12;7.57;;;7.07;;
11568;SDS011;5840;46.894;15.542;2022-07-22T03:10:39;7.57;;;7.07;;
11568;SDS011;5840;46.894;15.542;2022-07-22T03:13:06;8.70;;;7.90;;
11568;SDS011;5840;46.894;15.542;2022-07-22T03:15:33;8.07;;;7.47;;
11568;SDS011;5840;46.894;15.542;2022-07-22T03:18:00;7.77;;;7.27;;
11568;SDS011;5840;46.894;15.542;2022-07-22T03:20:29;7.90;;;7.40;;
11568;SDS011;5840;46.894;15.542;2022-07-22T03:22:56;7.20;;;6.80;;
11568;SDS011;5840;46.894;15.542;2022-07-22T03:25:23;8.20;;;7.37;;
11568;SDS011;5840;46.894;15.542;2022-07-22T03:27:50;8.27;;;7.67;;
11568;SDS011;5840;46.894;15.542;2022-07-22T03:30:16;9.23;;;8.40;;
11568;SDS011;5840;46.894;15.542;2022-07-22T03:32:43;8.20;;;7.70;;
11568;SDS011;5840;46.894;15.542;2022-07-22T03:35:11;8.43;;;7.87;;
11568;SDS011;5840;46.894;15.542;2022-07-22T03:37:40;8.20;;;7.57;;
11568;SDS011;5840;46.894;15.542;2022-07-22T03:40:07;8.30;;;7.80;;
11568;SDS011;5840;46.894;15.542;2022-07-22T03:42:35;8.10;;;7.50;;
11568;SDS011;5840;46.894;15.542;2022-07-22T03:45:02;8.00;;;7.43;;
11568;SDS011;5840;46.894;15.542;2022-07-22T03:47:30;8.37;;;7.77;;
11568;SDS011;5840;46.894;15.542;2022-07-22T03:49:56;8.03;;;7.43;;
11568;SDS011;5840;46.894;15.542;2022-07-22T03:52:24;8.33;;;7.73;;
11568;SDS011;5840;46.894;15.542;2022-07-22T03:54:52;8.57;;;8.00;;
11568;SDS011;5840;46.894;15.542;2022-07-22T03:57:19;7.87;;;7.37;;
11568;SDS011;5840;46.894;15.542;2022-07-22T03:59:46;8.03;;;7.40;;
11568;SDS011;5840;46.894;15.542;2022-07-22T04:02:13;7.97;;;7.40;;
11568;SDS011;5840;46.894;15.542;2022-07-22T04:04:41;8.60;;;8.00;;
11568;SDS011;5840;46.894;15.542;2022-07-22T04:07:07;7.97;;;7.47;;
11568;SDS011;5840;46.894;15.542;2022-07-22T04:09:34;8.20;;;7.70;;
11568;SDS011;5840;46.894;15.542;2022-07-22T04:12:03;9.47;;;8.73;;
11568;SDS011;5840;46.894;15.542;2022-07-22T04:14:30;8.80;;;8.27;;
11568;SDS011;5840;46.894;15.542;2022-07-22T04:16:57;8.50;;;7.90;;
11568;SDS011;5840;46.894;15.542;2022-07-22T04:19:24;8.50;;;7.90;;
11568;SDS011;5840;46.894;15.542;2022-07-22T04:21:51;8.00;;;7.40;;
11568;SDS011;5840;46.894;15.542;2022-07-22T04:24:18;8.63;;;8.03;;
11568;SDS011;5840;46.894;15.542;2022-07-22T04:26:45;8.73;;;7.83;;
11568;SDS011;5840;46.894;15.542;2022-07-22T04:29:14;9.03;;;8.37;;
11568;SDS011;5840;46.894;15.542;2022-07-22T04:31:41;9.20;;;8.50;;
11568;SDS011;5840;46.894;15.542;2022-07-22T04:34:07;8.70;;;8.07;;
11568;SDS011;5840;46.894;15.542;2022-07-22T04:36:34;8.33;;;7.73;;
11568;SDS011;5840;46.894;15.542;2022-07-22T04:39:01;8.57;;;8.03;;
11568;SDS011;5840;46.894;15.542;2022-07-22T04:41:29;8.53;;;7.80;;
11568;SDS011;5840;46.894;15.542;2022-07-22T04:43:56;9.40;;;8.70;;
11568;SDS011;5840;46.894;15.542;2022-07-22T04:46:24;8.90;;;8.30;;
11568;SDS011;5840;46.894;15.542;2022-07-22T04:48:51;10.80;;;9.60;;
11568;SDS011;5840;46.894;15.542;2022-07-22T04:51:18;10.67;;;9.77;;
11568;SDS011;5840;46.894;15.542;2022-07-22T04:53:45;10.33;;;9.63;;
11568;SDS011;5840;46.894;15.542;2022-07-22T04:56:12;10.93;;;10.17;;
11568;SDS011;5840;46.894;15.542;2022-07-22T04:58:39;11.37;;;10.50;;
11568;SDS011;5840;46.894;15.542;2022-07-22T05:01:06;10.33;;;9.63;;
11568;SDS011;5840;46.894;15.542;2022-07-22T05:03:34;10.43;;;9.77;;
11568;SDS011;5840;46.894;15.542;2022-07-22T05:06:04;10.83;;;10.10;;
11568;SDS011;5840;46.894;15.542;2022-07-22T05:08:31;10.40;;;9.70;;
11568;SDS011;5840;46.894;15.542;2022-07-22T05:10:57;11.47;;;10.57;;
11568;SDS011;5840;46.894;15.542;2022-07-22T05:13:24;11.77;;;10.83;;
11568;SDS011;5840;46.894;15.542;2022-07-22T05:15:51;12.80;;;11.50;;
11568;SDS011;5840;46.894;15.542;2022-07-22T05:18:18;11.83;;;10.87;;
11568;SDS011;5840;46.894;15.542;2022-07-22T05:20:47;11.30;;;10.40;;
11568;SDS011;5840;46.894;15.542;2022-07-22T05:23:14;11.33;;;10.53;;
11568;SDS011;5840;46.894;15.542;2022-07-22T05:25:40;11.07;;;10.17;;
11568;SDS011;5840;46.894;15.542;2022-07-22T05:28:07;10.70;;;9.93;;
11568;SDS011;5840;46.894;15.542;2022-07-22T05:30:34;11.43;;;10.50;;
11568;SDS011;5840;46.894;15.542;2022-07-22T05:33:01;10.07;;;9.37;;
11568;SDS011;5840;46.894;15.542;2022-07-22T05:35:28;9.73;;;9.03;;
11568;SDS011;5840;46.894;15.542;2022-07-22T05:37:57;11.27;;;10.47;;
11568;SDS011;5840;46.894;15.542;2022-07-22T05:40:23;10.37;;;9.77;;
11568;SDS011;5840;46.894;15.542;2022-07-22T05:42:50;10.80;;;10.10;;
11568;SDS011;5840;46.894;15.542;2022-07-22T05:45:17;10.10;;;9.50;;
11568;SDS011;5840;46.894;15.542;2022-07-22T05:47:44;9.83;;;9.03;;
11568;SDS011;5840;46.894;15.542;2022-07-22T05:50:11;9.90;;;9.20;;
11568;SDS011;5840;46.894;15.542;2022-07-22T05:52:38;10.47;;;9.67;;
11568;SDS011;5840;46.894;15.542;2022-07-22T05:55:07;10.07;;;9.40;;
11568;SDS011;5840;46.894;15.542;2022-07-22T05:57:35;10.17;;;9.40;;
11568;SDS011;5840;46.894;15.542;2022-07-22T06:00:02;10.83;;;9.60;;
11568;SDS011;5840;46.894;15.542;2022-07-22T06:02:29;9.47;;;8.87;;
11568;SDS011;5840;46.894;15.542;2022-07-22T06:04:56;10.57;;;9.87;;
11568;SDS011;5840;46.894;15.542;2022-07-22T06:07:25;9.50;;;8.83;;
11568;SDS011;5840;46.894;15.542;2022-07-22T06:09:52;9.80;;;9.00;;
11568;SDS011;5840;46.894;15.542;2022-07-22T06:12:20;10.57;;;9.67;;
11568;SDS011;5840;46.894;15.542;2022-07-22T06:14:47;11.03;;;10.10;;
11568;SDS011;5840;46.894;15.542;2022-07-22T06:17:14;11.37;;;10.43;;
11568;SDS011;5840;46.894;15.542;2022-07-22T06:19:41;10.37;;;9.53;;
11568;SDS011;5840;46.894;15.542;2022-07-22T06:22:08;10.77;;;10.00;;
11568;SDS011;5840;46.894;15.542;2022-07-22T06:24:35;11.07;;;10.17;;
11568;SDS011;5840;46.894;15.542;2022-07-22T06:27:02;10.50;;;9.70;;
11568;SDS011;5840;46.894;15.542;2022-07-22T06:29:30;10.67;;;9.77;;
11568;SDS011;5840;46.894;15.542;2022-07-22T06:31:57;11.30;;;10.40;;
11568;SDS011;5840;46.894;15.542;2022-07-22T06:34:24;10.17;;;9.47;;
11568;SDS011;5840;46.894;15.542;2022-07-22T06:36:51;11.03;;;10.23;;
11568;SDS011;5840;46.894;15.542;2022-07-22T06:39:18;10.53;;;9.83;;
11568;SDS011;5840;46.894;15.542;2022-07-22T06:41:45;9.93;;;9.10;;
11568;SDS011;5840;46.894;15.542;2022-07-22T06:44:12;9.87;;;9.27;;
11568;SDS011;5840;46.894;15.542;2022-07-22T06:46:40;10.27;;;9.47;;
11568;SDS011;5840;46.894;15.542;2022-07-22T06:49:07;9.80;;;9.10;;
11568;SDS011;5840;46.894;15.542;2022-07-22T06:51:34;10.07;;;9.27;;
11568;SDS011;5840;46.894;15.542;2022-07-22T06:54:01;9.23;;;8.63;;
11568;SDS011;5840;46.894;15.542;2022-07-22T06:56:28;10.13;;;9.30;;
11568;SDS011;5840;46.894;15.542;2022-07-22T06:58:55;9.63;;;9.03;;
11568;SDS011;5840;46.894;15.542;2022-07-22T07:01:22;10.23;;;9.37;;
11568;SDS011;5840;46.894;15.542;2022-07-22T07:03:50;9.37;;;8.73;;
11568;SDS011;5840;46.894;15.542;2022-07-22T07:06:17;9.33;;;8.73;;
11568;SDS011;5840;46.894;15.542;2022-07-22T07:08:44;10.63;;;9.90;;
11568;SDS011;5840;46.894;15.542;2022-07-22T07:11:11;10.20;;;9.40;;
11568;SDS011;5840;46.894;15.542;2022-07-22T07:13:38;9.60;;;8.90;;
11568;SDS011;5840;46.894;15.542;2022-07-22T07:16:05;9.70;;;9.00;;
11568;SDS011;5840;46.894;15.542;2022-07-22T07:18:32;9.33;;;8.73;;
11568;SDS011;5840;46.894;15.542;2022-07-22T07:21:00;11.43;;;10.47;;
11568;SDS011;5840;46.894;15.542;2022-07-22T07:23:29;9.97;;;9.27;;
11568;SDS011;5840;46.894;15.542;2022-07-22T07:25:56;10.20;;;9.40;;
11568;SDS011;5840;46.894;15.542;2022-07-22T07:28:23;10.47;;;9.73;;
11568;SDS011;5840;46.894;15.542;2022-07-22T07:30:50;10.50;;;9.70;;
11568;SDS011;5840;46.894;15.542;2022-07-22T07:33:17;10.50;;;9.70;;
11568;SDS011;5840;46.894;15.542;2022-07-22T07:35:44;9.17;;;8.50;;
11568;SDS011;5840;46.894;15.542;2022-07-22T07:38:14;10.07;;;9.17;;
11568;SDS011;5840;46.894;15.542;2022-07-22T07:40:41;9.77;;;9.10;;
11568;SDS011;5840;46.894;15.542;2022-07-22T07:43:08;9.97;;;9.27;;
11568;SDS011;5840;46.894;15.542;2022-07-22T07:45:35;9.90;;;9.00;;
11568;SDS011;5840;46.894;15.542;2022-07-22T07:48:03;9.67;;;9.03;;
11568;SDS011;5840;46.894;15.542;2022-07-22T07:50:30;9.83;;;9.10;;
11568;SDS011;5840;46.894;15.542;2022-07-22T07:52:57;10.30;;;9.60;;
11568;SDS011;5840;46.894;15.542;2022-07-22T07:55:26;9.93;;;9.23;;
11568;SDS011;5840;46.894;15.542;2022-07-22T07:57:53;10.00;;;9.27;;
11568;SDS011;5840;46.894;15.542;2022-07-22T08:00:21;10.23;;;9.37;;
11568;SDS011;5840;46.894;15.542;2022-07-22T08:02:49;10.20;;;9.43;;
11568;SDS011;5840;46.894;15.542;2022-07-22T08:05:16;11.00;;;10.20;;
11568;SDS011;5840;46.894;15.542;2022-07-22T08:07:45;10.53;;;9.73;;
11568;SDS011;5840;46.894;15.542;2022-07-22T08:10:12;10.27;;;9.37;;
11568;SDS011;5840;46.894;15.542;2022-07-22T08:12:41;11.03;;;10.17;;
11568;SDS011;5840;46.894;15.542;2022-07-22T08:15:08;10.60;;;9.90;;
11568;SDS011;5840;46.894;15.542;2022-07-22T08:17:36;10.43;;;9.73;;
11568;SDS011;5840;46.894;15.542;2022-07-22T08:20:04;10.83;;;10.13;;
11568;SDS011;5840;46.894;15.542;2022-07-22T08:22:32;11.43;;;10.43;;
11568;SDS011;5840;46.894;15.542;2022-07-22T08:24:58;10.43;;;9.63;;
11568;SDS011;5840;46.894;15.542;2022-07-22T08:27:26;10.83;;;10.03;;
11568;SDS011;5840;46.894;15.542;2022-07-22T08:29:54;10.80;;;9.93;;
11568;SDS011;5840;46.894;15.542;2022-07-22T08:32:21;10.13;;;9.50;;
11568;SDS011;5840;46.894;15.542;2022-07-22T08:34:48;10.93;;;10.10;;
11568;SDS011;5840;46.894;15.542;2022-07-22T08:37:16;10.33;;;9.50;;
11568;SDS011;5840;46.894;15.542;2022-07-22T08:39:43;10.30;;;9.50;;
11568;SDS011;5840;46.894;15.542;2022-07-22T08:42:10;10.03;;;9.33;;
11568;SDS011;5840;46.894;15.542;2022-07-22T08:44:38;10.13;;;9.43;;
11568;SDS011;5840;46.894;15.542;2022-07-22T08:47:07;10.40;;;9.57;;
11568;SDS011;5840;46.894;15.542;2022-07-22T08:49:34;10.40;;;9.50;;
11568;SDS011;5840;46.894;15.542;2022-07-22T08:52:01;9.97;;;9.37;;
11568;SDS011;5840;46.894;15.542;2022-07-22T08:54:29;10.83;;;9.97;;
11568;SDS011;5840;46.894;15.542;2022-07-22T08:56:55;11.13;;;10.23;;
11568;SDS011;5840;46.894;15.542;2022-07-22T08:59:23;10.07;;;9.47;;
11568;SDS011;5840;46.894;15.542;2022-07-22T09:02:03;10.10;;;9.40;;
11568;SDS011;5840;46.894;15.542;2022-07-22T09:04:33;9.90;;;9.20;;
11568;SDS011;5840;46.894;15.542;2022-07-22T09:07:22;9.70;;;8.93;;
11568;SDS011;5840;46.894;15.542;2022-07-22T09:09:50;9.67;;;8.93;;
11568;SDS011;5840;46.894;15.542;2022-07-22T09:12:17;9.90;;;9.20;;
11568;SDS011;5840;46.894;15.542;2022-07-22T09:14:45;10.17;;;9.47;;
11568;SDS011;5840;46.894;15.542;2022-07-22T09:17:21;9.87;;;9.23;;
11568;SDS011;5840;46.894;15.542;2022-07-22T09:19:51;9.10;;;8.40;;
11568;SDS011;5840;46.894;15.542;2022-07-22T09:22:29;9.43;;;8.73;;
11568;SDS011;5840;46.894;15.542;2022-07-22T09:24:58;8.70;;;7.90;;
11568;SDS011;5840;46.894;15.542;2022-07-22T09:27:25;9.10;;;8.50;;
11568;SDS011;5840;46.894;15.542;2022-07-22T09:29:54;8.33;;;7.73;;
11568;SDS011;5840;46.894;15.542;2022-07-22T09:32:22;8.80;;;8.20;;
11568;SDS011;5840;46.894;15.542;2022-07-22T09:34:50;9.17;;;8.27;;
11568;SDS011;5840;46.894;15.542;2022-07-22T09:37:28;8.70;;;8.03;;
11568;SDS011;5840;46.894;15.542;2022-07-22T09:39:55;8.10;;;7.60;;
11568;SDS011;5840;46.894;15.542;2022-07-22T09:42:43;8.83;;;8.03;;
11568;SDS011;5840;46.894;15.542;2022-07-22T09:45:11;8.83;;;8.13;;
11568;SDS011;5840;46.894;15.542;2022-07-22T09:47:40;9.33;;;8.30;;
11568;SDS011;5840;46.894;15.542;2022-07-22T09:50:14;8.77;;;8.07;;
11568;SDS011;5840;46.894;15.542;2022-07-22T09:52:43;8.60;;;7.97;;
11568;SDS011;5840;46.894;15.542;2022-07-22T09:55:11;8.90;;;8.20;;
11568;SDS011;5840;46.894;15.542;2022-07-22T09:57:40;8.83;;;8.23;;
11568;SDS011;5840;46.894;15.542;2022-07-22T10:00:08;8.27;;;7.70;;
11568;SDS011;5840;46.894;15.542;2022-07-22T10:02:37;8.83;;;8.13;;
11568;SDS011;5840;46.894;15.542;2022-07-22T10:05:08;8.40;;;7.90;;
11568;SDS011;5840;46.894;15.542;2022-07-22T10:07:38;8.20;;;7.60;;
11568;SDS011;5840;46.894;15.542;2022-07-22T10:10:07;8.83;;;8.07;;
11568;SDS011;5840;46.894;15.542;2022-07-22T10:12:35;8.67;;;8.17;;
11568;SDS011;5840;46.894;15.542;2022-07-22T10:15:04;9.17;;;8.47;;
11568;SDS011;5840;46.894;15.542;2022-07-22T10:17:32;8.73;;;8.13;;
11568;SDS011;5840;46.894;15.542;2022-07-22T10:20:01;8.53;;;7.90;;
11568;SDS011;5840;46.894;15.542;2022-07-22T10:22:47;9.27;;;8.57;;
11568;SDS011;5840;46.894;15.542;2022-07-22T10:25:15;8.40;;;7.63;;
11568;SDS011;5840;46.894;15.542;2022-07-22T10:27:45;7.83;;;7.20;;
11568;SDS011;5840;46.894;15.542;2022-07-22T10:30:13;8.33;;;7.63;;
11568;SDS011;5840;46.894;15.542;2022-07-22T10:32:42;8.03;;;7.40;;
11568;SDS011;5840;46.894;15.542;2022-07-22T10:35:24;7.50;;;6.90;;
11568;SDS011;5840;46.894;15.542;2022-07-22T10:37:54;7.90;;;7.40;;
11568;SDS011;5840;46.894;15.542;2022-07-22T10:40:23;8.50;;;7.80;;
11568;SDS011;5840;46.894;15.542;2022-07-22T10:43:09;7.97;;;7.47;;
11568;SDS011;5840;46.894;15.542;2022-07-22T10:45:41;8.00;;;7.40;;
11568;SDS011;5840;46.894;15.542;2022-07-22T10:48:11;8.73;;;7.17;;
11568;SDS011;5840;46.894;15.542;2022-07-22T10:50:40;7.83;;;7.33;;
11568;SDS011;5840;46.894;15.542;2022-07-22T10:53:14;7.80;;;7.33;;
11568;SDS011;5840;46.894;15.542;2022-07-22T10:55:58;7.90;;;7.30;;
11568;SDS011;5840;46.894;15.542;2022-07-22T10:58:39;8.13;;;7.47;;
11568;SDS011;5840;46.894;15.542;2022-07-22T11:01:08;7.50;;;6.90;;
11568;SDS011;5840;46.894;15.542;2022-07-22T11:03:37;7.83;;;7.23;;
11568;SDS011;5840;46.894;15.542;2022-07-22T11:06:13;7.83;;;7.30;;
11568;SDS011;5840;46.894;15.542;2022-07-22T11:08:55;7.20;;;6.60;;
11568;SDS011;5840;46.894;15.542;2022-07-22T11:11:34;7.77;;;7.17;;
11568;SDS011;5840;46.894;15.542;2022-07-22T11:14:10;7.63;;;7.03;;
11568;SDS011;5840;46.894;15.542;2022-07-22T11:16:38;7.97;;;7.30;;
11568;SDS011;5840;46.894;15.542;2022-07-22T11:19:05;7.53;;;6.90;;
11568;SDS011;5840;46.894;15.542;2022-07-22T11:21:33;8.10;;;7.57;;
11568;SDS011;5840;46.894;15.542;2022-07-22T11:24:02;8.00;;;7.40;;
11568;SDS011;5840;46.894;15.542;2022-07-22T11:26:35;7.77;;;7.00;;
11568;SDS011;5840;46.894;15.542;2022-07-22T11:29:05;7.23;;;6.77;;
11568;SDS011;5840;46.894;15.542;2022-07-22T11:31:32;7.90;;;7.37;;
11568;SDS011;5840;46.894;15.542;2022-07-22T11:34:09;8.07;;;7.47;;
11568;SDS011;5840;46.894;15.542;2022-07-22T11:36:38;7.30;;;6.70;;
11568;SDS011;5840;46.894;15.542;2022-07-22T11:39:09;7.63;;;7.10;;
11568;SDS011;5840;46.894;15.542;2022-07-22T11:41:37;7.87;;;7.23;;
11568;SDS011;5840;46.894;15.542;2022-07-22T11:44:05;7.77;;;7.23;;
11568;SDS011;5840;46.894;15.542;2022-07-22T11:46:36;7.83;;;7.13;;
11568;SDS011;5840;46.894;15.542;2022-07-22T11:49:04;7.27;;;6.67;;
11568;SDS011;5840;46.894;15.542;2022-07-22T11:51:33;7.73;;;7.23;;
11568;SDS011;5840;46.894;15.542;2022-07-22T11:54:02;8.03;;;7.23;;
11568;SDS011;5840;46.894;15.542;2022-07-22T11:56:31;7.83;;;7.23;;
11568;SDS011;5840;46.894;15.542;2022-07-22T11:58:59;7.63;;;7.07;;
11568;SDS011;5840;46.894;15.542;2022-07-22T12:01:30;7.90;;;7.40;;
11568;SDS011;5840;46.894;15.542;2022-07-22T12:03:59;7.60;;;7.05;;
11568;SDS011;5840;46.894;15.542;2022-07-22T12:06:28;7.28;;;6.57;;
11568;SDS011;5840;46.894;15.542;2022-07-22T12:09:02;7.60;;;7.10;;
11568;SDS011;5840;46.894;15.542;2022-07-22T12:11:32;8.00;;;7.22;;
11568;SDS011;5840;46.894;15.542;2022-07-22T12:14:04;7.13;;;6.43;;
11568;SDS011;5840;46.894;15.542;2022-07-22T12:16:32;7.13;;;6.50;;
11568;SDS011;5840;46.894;15.542;2022-07-22T12:19:00;7.20;;;6.60;;
11568;SDS011;5840;46.894;15.542;2022-07-22T12:21:29;7.70;;;7.00;;
11568;SDS011;5840;46.894;15.542;2022-07-22T12:23:58;6.88;;;6.45;;
11568;SDS011;5840;46.894;15.542;2022-07-22T12:26:39;7.17;;;6.67;;
11568;SDS011;5840;46.894;15.542;2022-07-22T12:29:15;6.88;;;6.47;;
11568;SDS011;5840;46.894;15.542;2022-07-22T12:31:43;7.28;;;6.68;;
11568;SDS011;5840;46.894;15.542;2022-07-22T12:34:11;7.15;;;6.53;;
11568;SDS011;5840;46.894;15.542;2022-07-22T12:36:40;6.72;;;6.30;;
11568;SDS011;5840;46.894;15.542;2022-07-22T12:39:10;8.27;;;7.47;;
11568;SDS011;5840;46.894;15.542;2022-07-22T12:41:46;7.20;;;6.70;;
11568;SDS011;5840;46.894;15.542;2022-07-22T12:44:16;8.38;;;7.80;;
11568;SDS011;5840;46.894;15.542;2022-07-22T12:46:44;7.70;;;7.20;;
11568;SDS011;5840;46.894;15.542;2022-07-22T12:49:12;7.18;;;6.68;;
11568;SDS011;5840;46.894;15.542;2022-07-22T12:51:40;7.10;;;6.53;;
11568;SDS011;5840;46.894;15.542;2022-07-22T12:54:07;7.25;;;6.57;;
11568;SDS011;5840;46.894;15.542;2022-07-22T12:56:34;7.70;;;7.03;;
11568;SDS011;5840;46.894;15.542;2022-07-22T12:59:02;7.40;;;6.90;;
11568;SDS011;5840;46.894;15.542;2022-07-22T13:01:29;7.15;;;6.75;;
11568;SDS011;5840;46.894;15.542;2022-07-22T13:03:56;7.93;;;7.43;;
11568;SDS011;5840;46.894;15.542;2022-07-22T13:06:23;7.18;;;6.68;;
11568;SDS011;5840;46.894;15.542;2022-07-22T13:08:50;7.07;;;6.65;;
11568;SDS011;5840;46.894;15.542;2022-07-22T13:11:17;7.50;;;7.00;;
11568;SDS011;5840;46.894;15.542;2022-07-22T13:13:44;8.80;;;8.13;;
11568;SDS011;5840;46.894;15.542;2022-07-22T13:16:14;8.48;;;7.43;;
11568;SDS011;5840;46.894;15.542;2022-07-22T13:18:40;7.60;;;7.00;;
11568;SDS011;5840;46.894;15.542;2022-07-22T13:21:07;7.72;;;7.22;;
11568;SDS011;5840;46.894;15.542;2022-07-22T13:23:34;7.95;;;7.45;;
11568;SDS011;5840;46.894;15.542;2022-07-22T13:26:02;8.45;;;7.75;;
11568;SDS011;5840;46.894;15.542;2022-07-22T13:28:29;8.15;;;7.60;;
11568;SDS011;5840;46.894;15.542;2022-07-22T13:30:55;8.30;;;7.47;;
11568;SDS011;5840;46.894;15.542;2022-07-22T13:33:24;7.80;;;6.93;;
11568;SDS011;5840;46.894;15.542;2022-07-22T13:35:51;7.82;;;7.40;;
11568;SDS011;5840;46.894;15.542;2022-07-22T13:38:18;8.27;;;7.55;;
11568;SDS011;5840;46.894;15.542;2022-07-22T13:40:45;8.02;;;7.32;;
11568;SDS011;5840;46.894;15.542;2022-07-22T13:43:16;7.75;;;7.25;;
11568;SDS011;5840;46.894;15.542;2022-07-22T13:45:43;8.23;;;7.63;;
11568;SDS011;5840;46.894;15.542;2022-07-22T13:48:10;7.38;;;6.88;;
11568;SDS011;5840;46.894;15.542;2022-07-22T13:50:38;7.97;;;7.32;;
11568;SDS011;5840;46.894;15.542;2022-07-22T13:53:05;7.82;;;7.15;;
11568;SDS011;5840;46.894;15.542;2022-07-22T13:55:32;8.07;;;7.35;;
11568;SDS011;5840;46.894;15.542;2022-07-22T13:57:59;7.70;;;7.07;;
11568;SDS011;5840;46.894;15.542;2022-07-22T14:00:26;8.18;;;7.40;;
11568;SDS011;5840;46.894;15.542;2022-07-22T14:02:53;7.93;;;7.30;;
11568;SDS011;5840;46.894;15.542;2022-07-22T14:05:20;8.18;;;7.38;;
11568;SDS011;5840;46.894;15.542;2022-07-22T14:07:48;8.90;;;8.05;;
11568;SDS011;5840;46.894;15.542;2022-07-22T14:10:15;8.00;;;7.20;;
11568;SDS011;5840;46.894;15.542;2022-07-22T14:12:42;7.63;;;7.10;;
11568;SDS011;5840;46.894;15.542;2022-07-22T14:15:10;8.30;;;7.60;;
11568;SDS011;5840;46.894;15.542;2022-07-22T14:17:40;8.25;;;7.55;;
11568;SDS011;5840;46.894;15.542;2022-07-22T14:20:07;8.10;;;7.47;;
11568;SDS011;5840;46.894;15.542;2022-07-22T14:22:34;6.72;;;6.32;;
11568;SDS011;5840;46.894;15.542;2022-07-22T14:25:03;7.80;;;7.10;;
11568;SDS011;5840;46.894;15.542;2022-07-22T14:27:30;7.60;;;7.10;;
11568;SDS011;5840;46.894;15.542;2022-07-22T14:29:57;7.87;;;7.17;;
11568;SDS011;5840;46.894;15.542;2022-07-22T14:32:24;7.60;;;6.97;;
11568;SDS011;5840;46.894;15.542;2022-07-22T14:34:51;8.27;;;7.57;;
11568;SDS011;5840;46.894;15.542;2022-07-22T14:37:18;8.50;;;7.67;;
11568;SDS011;5840;46.894;15.542;2022-07-22T14:39:45;8.23;;;7.43;;
11568;SDS011;5840;46.894;15.542;2022-07-22T14:42:13;7.00;;;6.40;;
11568;SDS011;5840;46.894;15.542;2022-07-22T14:44:40;7.20;;;6.70;;
11568;SDS011;5840;46.894;15.542;2022-07-22T14:47:07;7.77;;;7.20;;
11568;SDS011;5840;46.894;15.542;2022-07-22T14:49:34;8.00;;;7.30;;